Time;durP1;ratioP1;P1;durP2;ratioP2;P2;SDS_P1;SDS_P2;PMS_P1;PMS_P2;Temp;Humidity;BMP_temperature;BMP_pressure;BME280_temperature;BME280_humidity;BME280_pressure;Samples;Min_cycle;Max_cycle;Signal;HPM_P1;HPM_P2
2021/03/19 00:00:07;;;;;;;23.08;13.52;;;5.70;92.00;;;6.17;74.17;100848.09;5037036;28;20045;-80
2021/03/19 00:02:37;;;;;;;22.83;14.05;;;5.60;92.30;;;6.17;74.29;100852.63;5041451;28;20089;-80
2021/03/19 00:05:08;;;;;;;25.38;15.00;;;5.60;92.40;;;6.17;74.59;100850.78;5043687;28;20045;-80
2021/03/19 00:07:44;;;;;;;22.83;14.33;;;5.60;92.60;;;6.14;74.41;100844.81;5041239;28;20056;-80
2021/03/19 00:10:13;;;;;;;22.25;14.40;;;5.60;92.20;;;6.14;73.91;100850.22;5036806;28;20053;-80
2021/03/19 00:12:41;;;;;;;25.17;15.27;;;5.60;92.10;;;6.12;74.22;100852.22;5050132;28;20033;-80
2021/03/19 00:15:10;;;;;;;25.48;16.17;;;5.60;92.40;;;6.15;74.17;100855.50;5042416;28;20585;-80
2021/03/19 00:17:37;;;;;;;26.23;14.05;;;5.60;92.10;;;6.13;73.66;100862.03;5035969;28;20050;-80
2021/03/19 00:20:07;;;;;;;28.23;16.02;;;5.60;92.10;;;6.13;73.53;100862.91;5036005;28;20045;-80
2021/03/19 00:22:34;;;;;;;26.88;16.20;;;5.50;91.70;;;6.13;73.76;100857.50;5055180;28;20055;-81
2021/03/19 00:25:02;;;;;;;26.60;16.67;;;5.50;92.10;;;6.11;73.81;100859.50;5049739;28;20076;-80
2021/03/19 00:27:29;;;;;;;23.45;15.25;;;5.50;92.20;;;6.11;74.05;100862.19;5048267;28;20045;-80
2021/03/19 00:29:56;;;;;;;24.45;15.85;;;5.50;92.20;;;6.12;73.62;100863.03;5035430;28;20052;-80
2021/03/19 00:32:23;;;;;;;23.83;16.30;;;5.50;92.10;;;6.09;73.38;100866.84;5044226;28;20046;-80
2021/03/19 00:34:50;;;;;;;23.90;15.80;;;5.50;91.80;;;6.06;73.87;100872.56;5035134;28;20048;-80
2021/03/19 00:37:16;;;;;;;22.27;15.20;;;5.50;92.20;;;6.07;73.17;100868.84;5034718;28;20042;-80
2021/03/19 00:39:44;;;;;;;23.15;15.40;;;5.50;91.40;;;6.06;72.87;100877.97;5047672;28;20041;-80
2021/03/19 00:42:12;;;;;;;24.67;16.23;;;5.40;91.50;;;6.02;73.15;100876.56;5037345;28;20592;-80
2021/03/19 00:44:40;;;;;;;24.20;16.40;;;5.30;92.10;;;5.97;73.33;100878.84;5045390;28;20044;-81
2021/03/19 00:47:07;;;;;;;27.02;15.80;;;5.30;92.20;;;5.95;73.74;100878.13;5037075;28;20107;-80
2021/03/19 00:49:35;;;;;;;24.67;16.30;;;5.30;92.10;;;5.95;73.85;100886.22;5035837;28;20049;-80
2021/03/19 00:52:03;;;;;;;27.60;16.08;;;5.30;92.30;;;5.92;73.98;100881.09;5035413;28;20124;-80
2021/03/19 00:54:30;;;;;;;24.83;16.20;;;5.30;92.40;;;5.87;73.58;100882.38;5039307;28;20048;-80
2021/03/19 00:56:57;;;;;;;29.13;16.67;;;5.40;92.00;;;5.87;73.91;100873.44;5045202;28;20431;-80
2021/03/19 00:59:25;;;;;;;26.17;15.73;;;5.40;92.10;;;5.90;74.17;100877.69;5035955;28;20088;-80
2021/03/19 01:01:52;;;;;;;26.98;15.88;;;5.40;92.10;;;5.93;73.44;100877.41;5051437;28;20049;-80
2021/03/19 01:04:19;;;;;;;25.30;16.30;;;5.40;91.60;;;5.94;73.62;100879.09;5038500;28;20053;-80
2021/03/19 01:06:46;;;;;;;23.20;15.13;;;5.50;91.70;;;5.94;73.59;100877.28;5034728;28;20116;-80
2021/03/19 01:09:13;;;;;;;26.27;16.20;;;5.40;91.80;;;5.95;73.61;100870.00;5037217;28;20045;-80
2021/03/19 01:11:39;;;;;;;29.30;16.27;;;5.40;91.80;;;5.92;73.27;100865.75;5039938;28;20069;-80
2021/03/19 01:14:06;;;;;;;25.35;16.52;;;5.30;91.90;;;5.91;73.92;100868.59;5036545;28;20061;-80
2021/03/19 01:16:34;;;;;;;26.63;16.38;;;5.30;92.10;;;5.88;73.46;100877.84;5040491;28;20513;-80
2021/03/19 01:19:01;;;;;;;26.38;16.30;;;5.30;91.90;;;5.86;73.17;100874.44;5035876;28;20046;-80
2021/03/19 01:21:28;;;;;;;23.77;15.68;;;5.20;91.50;;;5.86;73.50;100880.69;5037133;28;20088;-80
2021/03/19 01:23:55;;;;;;;24.40;16.63;;;5.20;91.90;;;5.84;73.67;100890.78;5035411;28;20107;-80
2021/03/19 01:26:22;;;;;;;25.30;16.20;;;5.30;92.50;;;5.82;73.29;100892.75;5035136;28;20041;-80
2021/03/19 01:28:49;;;;;;;26.17;16.35;;;5.20;92.10;;;5.83;73.32;100896.34;5035153;28;20060;-80
2021/03/19 01:31:16;;;;;;;30.05;16.90;;;5.20;91.90;;;5.80;73.51;100899.31;5029055;28;20103;-80
2021/03/19 01:33:44;;;;;;;26.15;16.20;;;5.20;92.30;;;5.81;73.31;100904.59;5027868;28;20343;-80
2021/03/19 01:36:11;;;;;;;23.17;16.00;;;5.20;92.20;;;5.83;73.52;100894.47;5026028;28;20041;-80
2021/03/19 01:38:39;;;;;;;21.15;15.55;;;5.30;92.10;;;5.81;73.99;100901.03;5041702;28;20053;-80
2021/03/19 01:41:07;;;;;;;24.75;16.58;;;5.30;92.20;;;5.78;74.18;100904.84;5034421;28;20044;-80
2021/03/19 01:43:36;;;;;;;23.50;16.70;;;5.30;92.50;;;5.79;74.20;100917.38;5041451;28;20100;-81
2021/03/19 01:46:59;;;;;;;25.08;16.55;;;5.30;92.40;;;5.80;74.13;100915.53;5041054;28;20061;-80
2021/03/19 01:50:22;;;;;;;27.92;17.80;;;5.30;92.50;;;5.73;74.27;100923.38;5048023;28;20693;-80
2021/03/19 01:53:44;;;;;;;23.48;15.38;;;5.30;92.60;;;5.79;74.38;100913.84;5047899;28;20061;-80
2021/03/19 01:57:07;;;;;;;25.17;16.42;;;5.30;92.60;;;5.79;74.05;100920.09;5029440;28;20068;-80
2021/03/19 02:00:30;;;;;;;26.80;15.10;;;5.30;92.40;;;5.80;73.74;100927.16;5047300;28;20049;-80
2021/03/19 02:03:53;;;;;;;25.10;14.73;;;5.30;92.00;;;5.72;74.18;100921.63;5030785;28;20085;-80
2021/03/19 02:07:16;;;;;;;23.45;15.50;;;5.20;92.20;;;5.67;74.42;100913.97;5030858;28;20053;-80
2021/03/19 02:10:44;;;;;;;19.33;13.57;;;5.20;92.60;;;5.70;73.86;100918.22;5045745;28;20532;-80
2021/03/19 02:14:06;;;;;;;23.42;13.95;;;5.20;91.90;;;5.71;73.38;100913.69;5010340;28;20069;-80
2021/03/19 02:17:29;;;;;;;22.67;14.38;;;5.20;91.40;;;5.67;73.24;100919.38;5030453;28;20049;-80
2021/03/19 02:20:52;;;;;;;23.88;15.80;;;5.20;91.50;;;5.65;73.52;100920.50;5024629;28;20042;-80
2021/03/19 02:24:26;;;;;;;17.77;13.02;;;5.10;91.60;;;5.65;72.85;100921.38;5035447;28;20053;-80
2021/03/19 02:27:49;;;;;;;22.73;13.65;;;5.10;91.10;;;5.64;73.16;100932.31;5011243;28;20104;-80
2021/03/19 02:31:11;;;;;;;20.83;13.98;;;5.10;91.50;;;5.65;72.91;100923.19;5038486;28;20112;-80
2021/03/19 02:33:50;;;;;;;22.95;13.90;;;5.10;91.00;;;5.63;72.64;100926.03;5038863;28;20060;-80
2021/03/19 02:36:22;;;;;;;21.65;12.93;;;5.10;91.00;;;5.63;72.80;100926.03;5035139;28;20046;-80
2021/03/19 02:38:49;;;;;;;21.35;14.05;;;5.10;91.30;;;5.61;72.76;100932.59;5046190;28;20053;-81
2021/03/19 02:41:16;;;;;;;21.90;13.00;;;5.00;90.90;;;5.61;72.81;100927.19;5034908;28;20634;-80
2021/03/19 02:43:43;;;;;;;21.85;13.18;;;5.00;91.00;;;5.57;72.93;100932.00;5035137;28;20060;-80
2021/03/19 02:46:10;;;;;;;19.02;12.90;;;5.00;91.50;;;5.56;73.19;100934.84;5045132;28;20655;-80
2021/03/19 02:48:38;;;;;;;20.73;12.70;;;5.00;91.70;;;5.52;73.40;100938.84;5038044;28;21257;-80
2021/03/19 02:51:07;;;;;;;22.90;12.35;;;5.00;91.80;;;5.54;72.80;100944.94;5035360;28;20045;-80
2021/03/19 02:53:36;;;;;;;20.65;13.25;;;4.90;91.30;;;5.53;73.36;100952.19;5035125;28;20077;-80
2021/03/19 02:56:06;;;;;;;20.98;11.65;;;5.00;91.80;;;5.50;73.03;100952.47;5034497;28;20056;-80
2021/03/19 02:58:33;;;;;;;17.08;11.18;;;5.00;91.70;;;5.47;73.38;100953.59;5044367;28;20049;-80
2021/03/19 03:01:01;;;;;;;17.83;11.10;;;4.90;91.80;;;5.47;73.50;100947.38;5049748;28;20094;-80
2021/03/19 03:03:27;;;;;;;17.90;11.43;;;4.90;91.90;;;5.49;73.14;100946.22;5034823;28;20100;-80
2021/03/19 03:05:54;;;;;;;18.35;12.07;;;4.90;91.50;;;5.46;72.93;100946.53;5036202;28;20053;-80
2021/03/19 03:08:22;;;;;;;21.15;11.77;;;4.90;91.40;;;5.46;73.28;100961.84;5048436;28;20049;-80
2021/03/19 03:10:52;;;;;;;17.92;11.20;;;4.90;91.80;;;5.45;73.41;100961.00;5040484;28;20073;-80
2021/03/19 03:13:19;;;;;;;21.42;12.30;;;4.90;91.80;;;5.48;73.25;100976.94;5049481;28;20264;-80
2021/03/19 03:15:47;;;;;;;20.08;11.63;;;4.90;91.50;;;5.51;72.72;100981.19;5042016;28;20705;-80
2021/03/19 03:18:14;;;;;;;23.83;12.05;;;4.90;91.20;;;5.52;72.56;100990.13;5039143;28;20055;-80
2021/03/19 03:20:46;;;;;;;20.70;12.65;;;4.90;91.00;;;5.52;71.88;100990.13;5048447;28;20069;-80
2021/03/19 03:23:15;;;;;;;20.73;13.15;;;4.90;89.90;;;5.46;72.30;100988.84;5045863;28;20438;-80
2021/03/19 03:25:42;;;;;;;19.73;12.60;;;4.90;90.70;;;5.48;71.99;100992.25;5045555;28;20057;-80
2021/03/19 03:28:11;;;;;;;17.58;12.70;;;4.90;90.60;;;5.41;72.19;100989.25;5038776;28;20495;-80
2021/03/19 03:30:41;;;;;;;19.58;12.63;;;4.80;90.90;;;5.43;72.44;101010.72;5038502;28;20535;-80
2021/03/19 03:33:09;;;;;;;19.92;12.55;;;4.90;90.70;;;5.42;72.03;101003.59;5045675;28;20087;-80
2021/03/19 03:35:36;;;;;;;23.90;13.35;;;4.90;90.20;;;5.43;71.67;101010.72;5055783;28;20056;-80
2021/03/19 03:38:07;;;;;;;22.00;13.15;;;4.90;90.10;;;5.42;71.74;101006.31;5050588;28;20049;-80
2021/03/19 03:40:41;;;;;;;22.45;13.32;;;4.80;89.70;;;5.41;71.64;101013.56;5044322;28;20060;-80
2021/03/19 03:43:13;;;;;;;24.65;14.38;;;4.80;90.00;;;5.41;71.10;101018.97;5044675;28;20049;-80
2021/03/19 03:45:40;;;;;;;23.75;13.32;;;4.80;89.70;;;5.39;71.41;101015.53;5038463;28;20080;-80
2021/03/19 03:48:09;;;;;;;26.30;13.82;;;4.80;90.00;;;5.36;71.07;101015.81;5038419;28;20057;-80
2021/03/19 03:50:39;;;;;;;21.73;13.05;;;4.70;89.70;;;5.37;71.00;101017.53;5052265;28;20049;-80
2021/03/19 03:53:08;;;;;;;23.92;14.07;;;4.80;89.30;;;5.35;71.51;101018.66;5038031;28;20080;-80
2021/03/19 03:55:35;;;;;;;21.92;13.23;;;4.70;90.30;;;5.35;70.58;101018.66;5049059;28;20098;-80
2021/03/19 03:58:03;;;;;;;22.48;14.05;;;4.80;89.40;;;5.33;70.67;101029.59;5038649;28;20506;-80
2021/03/19 04:00:31;;;;;;;21.50;14.07;;;4.60;89.20;;;5.32;71.19;101030.56;5043088;28;20053;-80
2021/03/19 04:03:00;;;;;;;24.63;13.38;;;4.60;89.70;;;5.26;71.39;101040.06;5040563;28;20045;-80
2021/03/19 04:05:30;;;;;;;23.88;13.32;;;4.60;90.10;;;5.24;71.02;101039.38;5044761;28;20092;-80
2021/03/19 04:07:57;;;;;;;24.40;13.10;;;4.60;89.70;;;5.24;70.85;101043.91;5042845;28;20045;-80
2021/03/19 04:10:24;;;;;;;24.10;13.35;;;4.50;89.80;;;5.24;71.16;101049.31;5045967;28;20050;-80
2021/03/19 04:12:53;;;;;;;22.40;14.13;;;4.50;89.90;;;5.22;71.09;101040.50;5043827;28;20096;-80
2021/03/19 04:15:22;;;;;;;21.30;12.90;;;4.50;90.30;;;5.24;70.74;101049.31;5038000;28;20485;-80
2021/03/19 04:17:55;;;;;;;21.67;13.02;;;4.50;89.70;;;5.20;70.56;101048.72;5051360;28;20041;-80
2021/03/19 04:20:23;;;;;;;25.63;13.15;;;4.40;89.70;;;5.22;70.68;101054.00;5037704;28;20809;-80
2021/03/19 04:22:50;;;;;;;20.25;12.98;;;4.40;90.00;;;5.21;70.31;101057.66;5038047;28;20069;-80
2021/03/19 04:25:17;;;;;;;24.65;13.48;;;4.40;89.80;;;5.17;70.52;101065.19;5048340;28;20049;-81
2021/03/19 04:27:48;;;;;;;23.10;12.77;;;4.30;89.80;;;5.16;70.24;101065.31;5038726;28;20034;-80
2021/03/19 04:30:21;;;;;;;24.15;13.45;;;4.30;89.90;;;5.13;69.94;101069.13;5042093;28;20049;-80
2021/03/19 04:32:49;;;;;;;23.38;13.52;;;4.20;89.80;;;5.09;70.43;101057.75;5037591;28;20046;-80
2021/03/19 04:35:18;;;;;;;25.60;13.35;;;4.20;90.30;;;5.06;70.61;101066.16;5037892;28;20052;-80
2021/03/19 04:37:46;;;;;;;24.13;13.52;;;4.20;90.40;;;5.05;70.24;101061.72;5036785;28;20073;-80
2021/03/19 04:40:13;;;;;;;24.17;13.27;;;4.20;90.00;;;5.07;70.20;101070.53;5036337;28;20049;-80
2021/03/19 04:42:41;;;;;;;22.80;13.00;;;4.10;90.10;;;5.05;69.62;101067.13;5036011;28;20065;-80
2021/03/19 04:45:10;;;;;;;22.00;12.57;;;4.10;89.90;;;5.01;69.83;101068.38;5044297;28;20053;-80
2021/03/19 04:47:37;;;;;;;22.45;12.60;;;4.00;89.90;;;5.00;69.64;101063.97;5040959;28;20067;-80
2021/03/19 04:50:08;;;;;;;20.15;12.50;;;4.10;89.80;;;4.98;69.56;101065.94;5057093;28;20113;-80
2021/03/19 04:52:34;;;;;;;19.23;12.27;;;4.10;89.50;;;4.93;69.86;101073.59;5043527;28;20057;-80
2021/03/19 04:55:03;;;;;;;22.02;12.50;;;4.00;89.70;;;4.90;69.76;101073.88;5042484;28;20854;-80
2021/03/19 04:57:30;;;;;;;22.08;11.52;;;4.00;89.70;;;4.90;69.58;101082.81;5037431;28;20491;-80
2021/03/19 04:59:56;;;;;;;21.92;12.18;;;3.90;89.60;;;4.81;69.40;101096.22;5036819;28;20049;-81
2021/03/19 05:02:36;;;;;;;21.10;11.00;;;3.90;89.60;;;4.82;68.65;101093.41;5040893;28;20072;-80
2021/03/19 05:05:07;;;;;;;21.17;11.80;;;3.90;88.80;;;4.82;69.19;101093.41;5037050;28;20045;-80
2021/03/19 05:07:34;;;;;;;19.10;11.77;;;3.80;89.30;;;4.79;69.03;101092.81;5036636;28;20048;-80
2021/03/19 05:10:01;;;;;;;22.50;11.95;;;3.80;89.50;;;4.75;69.11;101099.47;5044678;28;20049;-80
2021/03/19 05:12:27;;;;;;;18.50;10.75;;;3.80;89.30;;;4.77;68.74;101102.88;5040450;28;20053;-80
2021/03/19 05:14:54;;;;;;;17.70;11.05;;;3.70;88.90;;;4.73;68.74;101109.53;5038291;28;20049;-80
2021/03/19 05:17:21;;;;;;;18.58;10.60;;;3.70;88.80;;;4.76;68.59;101109.25;5047211;28;20049;-80
2021/03/19 05:19:48;;;;;;;19.70;11.00;;;3.70;88.70;;;4.74;67.79;101112.09;5036447;28;20079;-80
2021/03/19 05:22:16;;;;;;;19.10;11.65;;;3.70;88.40;;;4.67;68.07;101116.31;5035590;28;20065;-81
2021/03/19 05:24:43;;;;;;;20.55;10.88;;;3.60;88.60;;;4.65;68.85;101116.44;5049522;28;20076;-80
2021/03/19 05:27:10;;;;;;;17.30;11.10;;;3.60;89.20;;;4.58;68.66;101117.09;5048854;28;20041;-81
2021/03/19 05:29:36;;;;;;;22.25;11.00;;;3.60;89.10;;;4.59;68.38;101119.66;5035195;28;20151;-82
2021/03/19 05:32:05;;;;;;;18.40;10.65;;;3.50;89.00;;;4.57;67.84;101131.53;5043341;28;20057;-83
2021/03/19 05:34:32;;;;;;;20.83;10.75;;;3.50;88.60;;;4.60;68.38;101131.28;5049535;28;20075;-82
2021/03/19 05:36:59;;;;;;;19.90;10.80;;;3.50;89.00;;;4.59;67.67;101122.34;5049359;28;20069;-82
2021/03/19 05:39:27;;;;;;;17.23;10.80;;;3.60;88.10;;;4.59;67.37;101118.78;5042961;28;20048;-82
2021/03/19 05:41:54;;;;;;;17.70;10.38;;;3.50;88.00;;;4.61;67.10;101125.78;5041044;28;20064;-82
2021/03/19 05:44:24;;;;;;;18.08;10.30;;;3.50;87.70;;;4.58;66.88;101126.03;5050009;28;20057;-82
2021/03/19 05:46:55;;;;;;;19.83;11.25;;;3.50;87.70;;;4.51;66.90;101141.00;5035567;28;20048;-83
2021/03/19 05:49:25;;;;;;;17.55;11.32;;;3.40;88.00;;;4.49;67.89;101137.56;5049284;28;20053;-83
2021/03/19 05:51:54;;;;;;;19.33;10.63;;;3.40;88.50;;;4.51;67.40;101143.69;5049080;28;20044;-84
2021/03/19 05:54:26;;;;;;;18.25;10.13;;;3.50;87.80;;;4.48;67.52;101143.97;5042890;28;20045;-85
2021/03/19 05:57:14;;;;;;;15.15;9.75;;;3.50;87.80;;;4.45;67.40;101145.06;5042140;28;20045;-84
2021/03/19 05:59:46;;;;;;;19.50;10.45;;;3.40;87.70;;;4.47;67.38;101142.25;5024108;28;20041;-82
2021/03/19 06:02:27;;;;;;;16.83;10.27;;;3.40;87.80;;;4.48;67.72;101152.91;5024682;28;20054;-82
2021/03/19 06:05:10;;;;;;;21.90;9.77;;;3.40;87.90;;;4.49;67.29;101156.44;5041011;28;20043;-82
2021/03/19 06:07:48;;;;;;;18.48;9.63;;;3.40;87.40;;;4.44;67.58;101158.69;5033828;28;20128;-80
2021/03/19 06:10:29;;;;;;;18.50;9.45;;;3.40;87.90;;;4.48;66.78;101154.75;5034850;28;20049;-80
2021/03/19 06:13:11;;;;;;;;;;;3.50;87.10;;;4.48;66.70;101160.13;5044126;28;20474;-80
2021/03/19 06:15:42;;;;;;;17.73;10.20;;;3.70;87.10;;;4.42;67.02;101172.28;5041726;28;19975;-80
2021/03/19 06:18:21;;;;;;;14.83;9.23;;;3.50;87.30;;;4.44;67.20;101167.63;5050047;28;20049;-80
2021/03/19 06:21:04;;;;;;;17.20;9.00;;;3.50;87.50;;;4.46;67.00;101168.34;5034278;28;20303;-80
2021/03/19 06:23:31;;;;;;;15.18;8.95;;;3.60;86.80;;;4.45;67.41;101173.88;5041371;28;20107;-80
2021/03/19 06:26:06;;;;;;;15.15;9.07;;;3.60;86.80;;;4.41;66.98;101175.09;5040283;28;20048;-80
2021/03/19 06:28:38;;;;;;;21.10;9.57;;;3.60;86.70;;;4.41;67.46;101180.50;5053089;28;20057;-80
2021/03/19 06:31:24;;;;;;;13.57;8.75;;;3.60;87.00;;;4.46;67.55;101184.53;5035144;28;20502;-80
2021/03/19 06:34:10;;;;;;;16.35;9.50;;;3.60;86.70;;;4.45;67.41;101193.56;5040372;28;20056;-80
2021/03/19 06:36:58;;;;;;;19.40;9.05;;;3.70;86.90;;;4.47;66.75;101188.94;5046567;28;20049;-80
2021/03/19 06:39:30;;;;;;;15.93;9.15;;;3.70;86.00;;;4.47;66.85;101190.75;5031094;28;20057;-80
2021/03/19 06:42:14;;;;;;;16.17;8.82;;;3.70;85.90;;;4.45;66.69;101188.19;5046436;28;20041;-80
2021/03/19 06:44:42;;;;;;;16.52;9.48;;;3.70;85.70;;;4.45;66.33;101190.88;5035054;28;20048;-80
2021/03/19 06:47:16;;;;;;;14.15;8.45;;;3.70;85.20;;;4.45;66.24;101184.66;5034017;28;20075;-81
2021/03/19 06:49:53;;;;;;;14.52;8.60;;;3.70;85.20;;;4.45;66.23;101188.19;5044946;28;20062;-80
2021/03/19 06:52:29;;;;;;;13.07;8.35;;;3.70;85.30;;;4.46;66.90;101197.16;5041573;28;20383;-81
2021/03/19 06:54:59;;;;;;;13.02;9.00;;;3.80;85.90;;;4.47;67.66;101198.84;5050242;28;20048;-81
2021/03/19 06:57:28;;;;;;;12.30;8.27;;;3.80;85.90;;;4.51;66.71;101197.59;5038325;28;20033;-80
2021/03/19 06:59:59;;;;;;;14.90;8.70;;;3.90;85.10;;;4.48;67.29;101200.56;5045217;28;20568;-80
2021/03/19 07:02:59;;;;;;;14.23;7.93;;;3.90;85.80;;;4.47;67.49;101202.41;5040642;28;20125;-81
2021/03/19 07:05:50;;;;;;;13.65;8.45;;;3.90;85.60;;;4.53;67.24;101206.41;5050845;28;20033;-80
2021/03/19 07:08:30;;;;;;;14.80;8.45;;;4.00;85.10;;;4.56;66.65;101211.56;5058444;28;20070;-80
2021/03/19 07:11:14;;;;;;;14.63;7.93;;;4.00;84.10;;;4.56;66.92;101206.16;5054614;28;20049;-80
2021/03/19 07:14:25;;;;;;;13.20;8.13;;;4.00;84.80;;;4.59;67.40;101216.69;5042249;28;20088;-80
2021/03/19 07:17:03;;;;;;;15.60;8.15;;;4.10;84.80;;;4.62;67.31;101227.22;5039429;28;20049;-80
2021/03/19 07:19:45;;;;;;;16.05;8.02;;;4.20;84.60;;;4.63;66.36;101226.25;5038508;28;20491;-80
2021/03/19 07:22:26;;;;;;;;;;;4.40;83.50;;;4.67;65.92;101229.53;5045369;28;20045;-80
2021/03/19 07:25:44;;;;;;;15.27;7.40;;;4.30;83.60;;;4.68;66.12;101242.91;5051722;28;19986;-80
2021/03/19 07:28:34;;;;;;;13.07;7.25;;;4.20;83.00;;;4.67;66.13;101241.16;5040040;28;20045;-80
2021/03/19 07:31:23;;;;;;;15.45;8.25;;;4.20;83.30;;;4.70;66.43;101246.31;5054266;28;20380;-80
2021/03/19 07:34:17;;;;;;;13.07;8.52;;;4.30;83.50;;;4.73;66.38;101244.34;5041708;28;20087;-80
2021/03/19 07:36:59;;;;;;;15.88;8.23;;;4.40;83.20;;;4.76;66.33;101255.72;5039634;28;20482;-80
2021/03/19 07:40:14;;;;;;;14.98;8.25;;;4.50;83.30;;;4.81;66.26;101255.34;5056684;28;20052;-80
2021/03/19 07:43:17;;;;;;;13.82;8.45;;;4.60;82.60;;;4.86;65.95;101261.22;5050101;28;20052;-80
2021/03/19 07:46:11;;;;;;;17.58;8.73;;;4.60;82.70;;;4.85;66.45;101271.13;5035515;28;20033;-80
2021/03/19 07:49:28;;;;;;;14.45;7.70;;;4.70;83.10;;;4.90;66.69;101273.44;5050456;28;20053;-80
2021/03/19 07:52:10;;;;;;;13.40;8.45;;;4.80;82.90;;;4.93;65.88;101272.31;5040680;28;20068;-80
2021/03/19 07:54:49;;;;;;;16.83;7.97;;;4.80;81.40;;;4.98;65.81;101276.34;5056331;28;20045;-81
2021/03/19 07:57:25;;;;;;;13.68;7.90;;;4.90;81.40;;;5.02;65.81;101271.53;5030976;28;20053;-81
2021/03/19 08:00:04;;;;;;;13.65;7.78;;;5.00;81.10;;;5.07;65.63;101280.97;5043041;28;20045;-81
2021/03/19 08:03:04;;;;;;;13.05;6.95;;;5.00;80.70;;;5.09;65.84;101281.69;5037768;28;20529;-81
2021/03/19 08:05:45;;;;;;;12.07;7.70;;;5.10;81.30;;;5.12;65.97;101277.00;5042153;28;20049;-81
2021/03/19 08:08:21;;;;;;;12.88;7.25;;;5.20;80.90;;;5.14;64.40;101289.41;5042062;28;20791;-81
2021/03/19 08:11:17;;;;;;;13.80;7.13;;;5.30;78.80;;;5.16;64.49;101294.66;5035994;28;20041;-81
2021/03/19 08:14:05;;;;;;;14.73;6.72;;;5.20;79.40;;;5.19;64.23;101299.78;5035875;28;20049;-81
2021/03/19 08:16:39;;;;;;;15.23;7.07;;;5.10;78.80;;;5.20;64.46;101298.81;5042282;28;20046;-81
2021/03/19 08:19:33;;;;;;;17.13;7.43;;;5.20;79.20;;;5.22;64.51;101294.16;5036086;28;20037;-79
2021/03/19 08:22:16;;;;;;;13.30;7.65;;;5.20;79.40;;;5.27;65.20;101300.00;5040548;28;20045;-79
2021/03/19 08:24:54;;;;;;;11.85;7.03;;;5.40;80.20;;;5.30;65.31;101307.84;5045177;28;20079;-79
2021/03/19 08:27:39;;;;;;;12.77;6.70;;;5.40;79.50;;;5.34;65.11;101314.69;5043025;28;20053;-79
2021/03/19 08:30:24;;;;;;;11.57;6.60;;;5.50;79.70;;;5.41;65.20;101321.28;5031766;28;20041;-79
2021/03/19 08:33:03;;;;;;;12.05;6.53;;;5.60;79.90;;;5.45;65.55;101322.72;5036544;28;20048;-79
2021/03/19 08:35:36;;;;;;;11.77;6.28;;;5.70;79.50;;;5.49;64.90;101329.56;5036585;28;20116;-79
2021/03/19 08:38:24;;;;;;;12.55;6.68;;;5.70;78.70;;;5.51;64.22;101325.91;5048854;28;20052;-79
2021/03/19 08:40:59;;;;;;;13.80;6.53;;;5.80;77.90;;;5.51;64.52;101325.91;5027375;28;20061;-80
2021/03/19 08:43:31;;;;;;;10.93;6.32;;;5.80;78.00;;;5.51;63.77;101331.28;5039715;28;20099;-80
2021/03/19 08:46:10;;;;;;;10.98;6.07;;;5.80;77.60;;;5.53;64.00;101337.41;5041087;28;20053;-82
2021/03/19 08:48:50;;;;;;;10.73;5.57;;;5.70;78.00;;;5.56;63.21;101338.00;5036635;28;20061;-82
2021/03/19 08:51:38;;;;;;;11.38;6.05;;;5.80;76.50;;;5.59;63.41;101339.59;5042516;28;20055;-82
2021/03/19 08:54:27;;;;;;;13.10;6.65;;;5.80;76.30;;;5.63;62.40;101346.41;5047625;28;20037;-82
2021/03/19 08:57:16;;;;;;;8.95;4.90;;;5.80;75.10;;;5.62;62.26;101344.72;5035250;28;20052;-82
2021/03/19 08:59:53;;;;;;;13.02;4.68;;;5.80;75.30;;;5.65;62.07;101350.72;5030574;28;20119;-83
2021/03/19 09:02:59;;;;;;;10.40;5.35;;;5.90;75.60;;;5.67;61.37;101359.53;5044118;28;20049;-82
2021/03/19 09:05:33;;;;;;;8.27;4.63;;;6.00;74.40;;;5.66;61.27;101351.56;4974109;28;20057;-82
2021/03/19 09:08:25;;;;;;;8.88;4.70;;;6.00;73.60;;;5.69;61.02;101351.28;4965137;28;20057;-81
2021/03/19 09:11:06;;;;;;;;;;;6.00;73.30;;;5.74;61.45;101354.47;5003311;28;20053;-81
2021/03/19 09:13:32;;;;;;;8.23;4.28;;;6.10;74.30;;;5.80;62.41;101345.81;5022631;28;19971;-81
2021/03/19 09:16:44;;;;;;;8.68;4.15;;;6.30;74.70;;;5.83;61.63;101361.78;5016093;28;20103;-82
2021/03/19 09:19:50;;;;;;;;;;;6.40;73.50;;;5.83;60.06;101359.06;5025777;28;20056;-81
2021/03/19 09:22:54;;;;;;;9.05;4.63;;;6.40;71.40;;;5.82;59.92;101362.75;5035121;28;19932;-81
2021/03/19 09:25:38;;;;;;;7.93;3.65;;;6.30;71.90;;;5.82;59.75;101372.69;5038430;28;20454;-81
2021/03/19 09:28:57;;;;;;;7.15;4.10;;;6.20;71.70;;;5.83;59.71;101386.09;5040057;28;20572;-82
2021/03/19 09:31:43;;;;;;;9.80;4.38;;;6.10;73.00;;;5.83;59.62;101369.88;5011922;28;20061;-80
2021/03/19 09:35:03;;;;;;;7.05;4.07;;;6.10;72.40;;;5.83;59.80;101380.69;5015856;28;20355;-81
2021/03/19 09:37:52;;;;;;;7.60;4.00;;;6.00;72.60;;;5.84;59.32;101382.38;4946946;28;20076;-81
2021/03/19 09:40:42;;;;;;;7.70;4.05;;;6.00;72.30;;;5.86;60.36;101387.66;5024981;28;20061;-81
2021/03/19 09:43:31;;;;;;;7.78;4.25;;;6.20;72.90;;;5.92;59.93;101380.88;5019763;28;20065;-81
2021/03/19 09:46:07;;;;;;;7.28;3.70;;;6.30;72.00;;;5.93;59.69;101390.69;5033310;28;20656;-81
2021/03/19 09:48:37;;;;;;;6.38;3.67;;;6.30;71.90;;;5.97;59.78;101384.06;5040665;28;20180;-81
2021/03/19 09:51:35;;;;;;;7.50;3.80;;;6.40;72.20;;;6.00;60.45;101391.91;5034776;28;20067;-81
2021/03/19 09:54:36;;;;;;;6.32;3.50;;;6.40;72.50;;;6.02;59.63;101384.53;5048770;28;20489;-81
2021/03/19 09:57:13;;;;;;;9.63;3.30;;;6.50;71.00;;;6.07;59.42;101388.53;4993375;28;20073;-81
2021/03/19 09:59:44;;;;;;;8.88;3.17;;;6.60;70.90;;;6.08;57.54;101394.78;5024652;28;20050;-81
2021/03/19 10:02:28;;;;;;;7.65;3.47;;;6.70;67.80;;;6.07;58.39;101399.34;5035425;28;20045;-81
2021/03/19 10:05:09;;;;;;;6.15;2.72;;;6.70;68.60;;;6.13;58.21;101397.09;5032919;28;20041;-81
2021/03/19 10:07:37;;;;;;;5.03;2.83;;;6.80;68.60;;;6.18;58.05;101401.09;5052679;28;20041;-81
2021/03/19 10:10:05;;;;;;;6.53;2.65;;;6.90;67.70;;;6.18;58.04;101403.78;5042584;28;20053;-81
2021/03/19 10:12:36;;;;;;;5.53;2.88;;;6.90;67.70;;;6.22;57.19;101416.06;5035836;28;20566;-81
2021/03/19 10:15:14;;;;;;;6.45;3.22;;;6.90;67.40;;;6.23;56.68;101404.25;5042252;28;20041;-81
2021/03/19 10:17:49;;;;;;;6.43;2.60;;;6.90;66.20;;;6.28;57.57;101411.94;5036881;28;20049;-81
2021/03/19 10:20:38;;;;;;;5.32;2.53;;;7.00;67.90;;;6.28;55.98;101421.91;5042837;28;20045;-81
2021/03/19 10:23:16;;;;;;;3.90;2.10;;;6.80;65.50;;;6.25;54.64;101399.56;5038027;28;20057;-81
2021/03/19 10:25:45;;;;;;;5.63;2.70;;;6.70;64.40;;;6.28;55.01;101394.88;5037917;28;20063;-81
2021/03/19 10:28:24;;;;;;;5.95;2.30;;;6.70;65.70;;;6.31;55.77;101394.63;5035738;28;20046;-81
2021/03/19 10:30:54;;;;;;;6.13;2.60;;;6.70;67.10;;;6.32;56.32;101404.44;5034720;28;20052;-81
2021/03/19 10:33:26;;;;;;;4.47;2.33;;;6.80;67.60;;;6.33;54.56;101398.06;5036250;28;20554;-81
2021/03/19 10:36:00;;;;;;;5.60;2.17;;;6.80;64.40;;;6.36;55.26;101405.88;5034464;28;20045;-81
2021/03/19 10:38:37;;;;;;;5.28;2.10;;;6.90;65.50;;;6.37;55.38;101404.91;5033455;28;20400;-81
2021/03/19 10:41:12;;;;;;;5.15;2.13;;;6.90;66.00;;;6.40;55.68;101413.59;5037780;28;20045;-81
2021/03/19 10:44:08;;;;;;;9.05;2.67;;;6.90;65.70;;;6.42;55.48;101403.50;5053704;28;20057;-81
2021/03/19 10:46:40;;;;;;;7.55;2.35;;;6.90;65.30;;;6.42;56.39;101389.13;5029109;28;20052;-81
2021/03/19 10:49:17;;;;;;;4.45;2.30;;;7.10;66.80;;;6.44;54.80;101393.41;5030375;28;20491;-81
2021/03/19 10:51:51;;;;;;;3.95;2.30;;;6.90;64.50;;;6.48;55.23;101393.16;5051338;28;20041;-81
2021/03/19 10:54:24;;;;;;;5.03;2.13;;;7.10;65.50;;;6.49;53.97;101413.75;5037847;28;20052;-81
2021/03/19 10:56:57;;;;;;;5.20;2.60;;;7.10;62.60;;;6.48;54.00;101412.06;5034431;28;20500;-81
2021/03/19 10:59:35;;;;;;;9.52;2.75;;;7.00;63.90;;;6.48;54.87;101410.22;5034615;28;20044;-81
2021/03/19 11:02:24;;;;;;;4.82;2.38;;;7.00;64.20;;;6.53;54.30;101410.66;5040726;28;20041;-81